Time;durP1;ratioP1;P1;durP2;ratioP2;P2;SDS_P1;SDS_P2;PMS_P1;PMS_P2;Temp;Humidity;BMP_temperature;BMP_pressure;BME280_temperature;BME280_humidity;BME280_pressure;Samples;Min_cycle;Max_cycle;Signal;HPM_P1;HPM_P2
2023/05/12 00:02:11;;;;;;;24.10;21.70;;;;;;;12.16;100.00;101391.84;4887219;28;20107;-67
2023/05/12 00:04:39;;;;;;;22.15;19.95;;;;;;;12.08;100.00;101385.13;4891268;29;20030;-66
2023/05/12 00:07:05;;;;;;;21.27;19.08;;;;;;;12.08;100.00;101383.34;4906848;28;20122;-66
2023/05/12 00:09:31;;;;;;;20.10;17.98;;;;;;;11.96;100.00;101379.47;4894624;28;20032;-67
2023/05/12 00:11:56;;;;;;;19.38;17.25;;;;;;;11.94;100.00;101384.00;4899303;28;20489;-65
2023/05/12 00:14:22;;;;;;;18.80;16.80;;;;;;;11.92;100.00;101385.03;4901106;28;20039;-66
2023/05/12 00:16:50;;;;;;;17.83;16.00;;;;;;;11.86;100.00;101379.97;4900359;28;20275;-66
2023/05/12 00:19:17;;;;;;;17.73;15.93;;;;;;;11.85;100.00;101388.91;4901404;28;20032;-66
2023/05/12 00:21:43;;;;;;;18.45;16.58;;;;;;;11.84;100.00;101388.06;4893758;28;20029;-66
2023/05/12 00:24:08;;;;;;;18.13;16.23;;;;;;;11.79;100.00;101379.38;4969109;28;20068;-65
2023/05/12 00:26:33;;;;;;;17.38;15.65;;;;;;;11.71;100.00;101377.06;4904756;28;20512;-66
2023/05/12 00:28:59;;;;;;;17.55;15.80;;;;;;;11.69;100.00;101380.72;4923826;28;20063;-65
2023/05/12 00:31:24;;;;;;;17.92;16.05;;;;;;;11.66;100.00;101383.53;4925960;28;20036;-66
2023/05/12 00:33:50;;;;;;;19.58;17.13;;;;;;;11.65;100.00;101379.13;4919609;28;20520;-66
2023/05/12 00:36:15;;;;;;;18.85;16.90;;;;;;;11.65;100.00;101381.81;4948504;28;20471;-65
2023/05/12 00:38:41;;;;;;;20.17;17.02;;;;;;;11.66;100.00;101375.53;4928945;28;20064;-66
2023/05/12 00:41:06;;;;;;;19.02;16.30;;;;;;;11.64;100.00;101380.94;4914306;28;20124;-65
2023/05/12 00:43:32;;;;;;;16.17;14.48;;;;;;;11.50;100.00;101382.53;4925427;28;20056;-66
2023/05/12 00:45:58;;;;;;;15.13;13.45;;;;;;;11.52;100.00;101372.66;4969659;28;20032;-66
2023/05/12 00:48:24;;;;;;;13.70;12.30;;;;;;;11.39;100.00;101377.69;4940615;28;20032;-66
2023/05/12 00:50:50;;;;;;;14.38;12.88;;;;;;;11.31;100.00;101380.69;4935523;28;20049;-66
2023/05/12 00:53:16;;;;;;;13.57;12.13;;;;;;;11.31;100.00;101388.69;4899774;28;20028;-66
2023/05/12 00:55:42;;;;;;;14.23;12.10;;;;;;;11.22;100.00;101384.66;4965598;28;20116;-66
2023/05/12 00:58:08;;;;;;;14.15;12.50;;;;;;;11.26;100.00;101376.53;4911969;28;20035;-67
2023/05/12 01:00:33;;;;;;;14.50;12.93;;;;;;;11.25;100.00;101375.66;4892942;28;20283;-66
2023/05/12 01:02:58;;;;;;;13.95;12.20;;;;;;;11.14;100.00;101376.13;4899615;28;20075;-66
2023/05/12 01:05:34;;;;;;;13.88;12.25;;;;;;;11.13;100.00;101378.88;4885700;29;20033;-66
2023/05/12 01:08:00;;;;;;;13.60;12.00;;;;;;;11.03;100.00;101372.19;4915054;28;20034;-66
2023/05/12 01:10:26;;;;;;;17.02;12.80;;;;;;;11.00;100.00;101372.38;4905624;28;20540;-67
2023/05/12 01:12:51;;;;;;;13.15;11.80;;;;;;;11.00;100.00;101372.38;4911844;28;20117;-67
2023/05/12 01:15:17;;;;;;;17.23;13.80;;;;;;;11.07;100.00;101376.47;4940984;28;20032;-66
2023/05/12 01:17:54;;;;;;;14.80;12.63;;;;;;;11.03;100.00;101357.09;4934307;28;20025;-67
2023/05/12 01:20:24;;;;;;;14.60;12.88;;;;;;;10.98;100.00;101365.28;4892211;28;20485;-66
2023/05/12 01:22:50;;;;;;;15.18;13.55;;;;;;;10.99;100.00;101360.81;4975387;28;20035;-67
2023/05/12 01:25:18;;;;;;;15.77;14.05;;;;;;;10.92;100.00;101362.03;4920022;28;20136;-67
2023/05/12 01:27:47;;;;;;;16.38;14.32;;;;;;;10.96;100.00;101366.31;4898849;28;20563;-67
2023/05/12 01:30:16;;;;;;;16.83;13.85;;;;;;;10.92;100.00;101354.91;4910154;28;20094;-66
2023/05/12 01:32:41;;;;;;;16.90;15.10;;;;;;;10.98;100.00;101359.97;4909077;28;20024;-66
2023/05/12 01:35:07;;;;;;;16.52;14.77;;;;;;;10.91;100.00;101354.97;4906950;28;20245;-67
2023/05/12 01:37:32;;;;;;;18.40;15.40;;;;;;;10.87;100.00;101348.94;4895760;29;20392;-66
2023/05/12 01:39:58;;;;;;;16.42;14.73;;;;;;;10.89;100.00;101349.72;4903697;28;20036;-66
2023/05/12 01:42:23;;;;;;;17.48;15.65;;;;;;;10.83;100.00;101352.66;4940384;28;20065;-67
2023/05/12 01:44:48;;;;;;;17.85;15.98;;;;;;;10.84;100.00;101349.06;4951191;28;20455;-66
2023/05/12 01:47:14;;;;;;;17.63;15.70;;;;;;;10.90;100.00;101347.91;4926185;28;20042;-67
2023/05/12 01:49:40;;;;;;;17.67;15.88;;;;;;;10.90;100.00;101348.78;4935756;28;20025;-66
2023/05/12 01:52:05;;;;;;;18.95;16.42;;;;;;;10.86;100.00;101349.84;4925711;28;20392;-66
2023/05/12 01:54:31;;;;;;;18.95;16.92;;;;;;;10.86;100.00;101346.31;4909756;28;20259;-67
2023/05/12 01:56:56;;;;;;;19.17;17.10;;;;;;;10.81;100.00;101343.84;4894528;28;20035;-66
2023/05/12 01:59:22;;;;;;;18.50;16.60;;;;;;;10.79;100.00;101342.22;4902297;28;20040;-66
2023/05/12 02:01:47;;;;;;;18.83;16.50;;;;;;;10.77;100.00;101342.25;4900866;28;20050;-66
2023/05/12 02:04:12;;;;;;;21.25;18.92;;;;;;;10.81;100.00;101340.34;4910020;28;20433;-66
2023/05/12 02:06:38;;;;;;;19.38;17.35;;;;;;;10.82;100.00;101337.59;4885563;29;20444;-66
2023/05/12 02:09:03;;;;;;;19.30;17.23;;;;;;;10.85;100.00;101337.47;4946837;28;20622;-66
2023/05/12 02:11:29;;;;;;;18.48;16.58;;;;;;;10.77;100.00;101336.94;4896279;28;20108;-66
2023/05/12 02:13:55;;;;;;;19.83;16.88;;;;;;;10.82;100.00;101332.25;4896408;29;20028;-66
2023/05/12 02:16:20;;;;;;;18.40;16.23;;;;;;;10.78;100.00;101330.66;4924754;28;20037;-66
2023/05/12 02:18:46;;;;;;;17.20;15.15;;;;;;;10.66;100.00;101334.75;4912643;28;20032;-66
2023/05/12 02:21:11;;;;;;;15.13;13.63;;;;;;;10.63;100.00;101331.34;4920022;28;20493;-66
2023/05/12 02:23:37;;;;;;;15.43;13.80;;;;;;;10.59;100.00;101332.44;4929280;28;20126;-65
2023/05/12 02:26:02;;;;;;;13.23;11.82;;;;;;;10.60;100.00;101331.47;4895040;28;20404;-66
2023/05/12 02:28:28;;;;;;;11.82;10.68;;;;;;;10.45;100.00;101323.25;4900025;28;20122;-66
2023/05/12 02:30:53;;;;;;;11.77;10.57;;;;;;;10.44;100.00;101323.28;4904323;28;20123;-66
2023/05/12 02:33:20;;;;;;;10.98;9.90;;;;;;;10.47;100.00;101325.81;4900675;28;20126;-66
2023/05/12 02:35:45;;;;;;;12.38;10.20;;;;;;;10.39;100.00;101318.16;4889834;28;20048;-66
2023/05/12 02:38:11;;;;;;;11.55;10.32;;;;;;;10.40;100.00;101317.22;4897151;28;20428;-66
2023/05/12 02:40:37;;;;;;;13.10;10.88;;;;;;;10.39;100.00;101311.97;4905776;28;20030;-66
2023/05/12 02:43:03;;;;;;;12.18;10.68;;;;;;;10.41;100.00;101321.63;4906534;29;20115;-65
2023/05/12 02:45:28;;;;;;;12.05;10.75;;;;;;;10.36;100.00;101312.09;4903195;28;20090;-66
2023/05/12 02:47:53;;;;;;;11.50;10.30;;;;;;;10.35;100.00;101313.91;4940503;28;20028;-66
2023/05/12 02:50:20;;;;;;;11.10;9.95;;;;;;;10.34;100.00;101312.19;4904641;28;20204;-65
2023/05/12 02:52:49;;;;;;;12.85;10.93;;;;;;;10.42;100.00;101312.72;4902538;28;20040;-66
2023/05/12 02:55:14;;;;;;;12.27;10.85;;;;;;;10.47;100.00;101296.53;4959859;28;20032;-67
2023/05/12 02:57:40;;;;;;;12.05;10.25;;;;;;;10.38;100.00;101300.47;4967216;28;20048;-66
2023/05/12 03:00:06;;;;;;;11.23;9.98;;;;;;;10.35;100.00;101305.06;4924057;28;20046;-66
2023/05/12 03:02:36;;;;;;;10.65;9.55;;;;;;;10.36;100.00;101294.34;4902641;28;20103;-66
2023/05/12 03:05:02;;;;;;;10.32;9.23;;;;;;;10.32;100.00;101303.38;4953134;28;20534;-66
2023/05/12 03:07:27;;;;;;;9.80;8.68;;;;;;;10.33;100.00;101291.81;4901336;28;20535;-66
2023/05/12 03:09:53;;;;;;;9.38;8.35;;;;;;;10.34;100.00;101298.00;4903993;28;20031;-66
2023/05/12 03:12:18;;;;;;;9.82;8.70;;;;;;;10.34;100.00;101295.34;4895978;28;20028;-66
2023/05/12 03:14:44;;;;;;;9.43;8.43;;;;;;;10.36;100.00;101291.69;4913201;28;20030;-65
2023/05/12 03:17:09;;;;;;;10.07;8.52;;;;;;;10.32;100.00;101287.41;4922738;28;20032;-65
2023/05/12 03:19:35;;;;;;;9.68;8.30;;;;;;;10.32;100.00;101279.44;4902159;28;20029;-65
2023/05/12 03:22:02;;;;;;;10.75;8.75;;;;;;;10.35;100.00;101281.09;4931454;28;20036;-65
2023/05/12 03:24:27;;;;;;;7.97;7.18;;;;;;;10.28;100.00;101282.28;4920744;28;20131;-65
2023/05/12 03:26:53;;;;;;;9.75;7.63;;;;;;;10.32;100.00;101281.22;4899349;28;20126;-65
2023/05/12 03:29:19;;;;;;;7.65;6.68;;;;;;;10.28;100.00;101275.16;4894045;28;20469;-64
2023/05/12 03:31:44;;;;;;;8.18;7.18;;;;;;;10.30;100.00;101260.03;4901259;28;20102;-65
2023/05/12 03:34:09;;;;;;;8.38;7.28;;;;;;;10.26;100.00;101263.75;4897338;28;20039;-65
2023/05/12 03:36:36;;;;;;;8.63;7.25;;;;;;;10.23;100.00;101267.34;4909476;28;20040;-65
2023/05/12 03:39:02;;;;;;;9.45;7.90;;;;;;;10.20;100.00;101262.19;4899031;28;20039;-65
2023/05/12 03:41:27;;;;;;;8.68;7.78;;;;;;;10.20;100.00;101262.19;4897414;28;20032;-65
2023/05/12 03:43:52;;;;;;;10.60;8.02;;;;;;;10.25;100.00;101261.16;4921207;28;20089;-64
2023/05/12 03:46:18;;;;;;;10.73;8.43;;;;;;;10.24;100.00;101260.25;4912817;28;20035;-64
2023/05/12 03:48:43;;;;;;;13.43;10.32;;;;;;;10.20;100.00;101256.88;4912278;28;20066;-64
2023/05/12 03:51:08;;;;;;;13.75;10.38;;;;;;;10.16;100.00;101267.72;4915917;28;20403;-65
2023/05/12 03:53:34;;;;;;;16.17;11.93;;;;;;;10.19;100.00;101262.22;4887192;28;20024;-65
2023/05/12 03:56:05;;;;;;;15.60;11.30;;;;;;;10.16;100.00;101257.94;4911442;28;20081;-64
2023/05/12 03:58:31;;;;;;;18.70;12.95;;;;;;;10.21;100.00;101245.28;4895966;29;20472;-64
2023/05/12 04:00:56;;;;;;;21.70;14.07;;;;;;;10.18;100.00;101256.06;4947573;28;20109;-64
2023/05/12 04:03:21;;;;;;;21.08;14.75;;;;;;;10.19;100.00;101255.13;4887505;28;20607;-64
2023/05/12 04:05:47;;;;;;;19.60;14.27;;;;;;;10.21;100.00;101255.06;4899536;28;20555;-64
2023/05/12 04:08:12;;;;;;;20.15;14.63;;;;;;;10.20;100.00;101256.88;4911903;28;20416;-65
2023/05/12 04:10:41;;;;;;;21.83;15.13;;;;;;;10.23;100.00;101247.88;4913882;28;20408;-64
2023/05/12 04:13:07;;;;;;;22.48;16.10;;;;;;;10.19;100.00;101241.81;4964732;28;20209;-65
2023/05/12 04:15:35;;;;;;;23.77;16.17;;;;;;;10.23;100.00;101243.41;4898757;28;20043;-65
2023/05/12 04:18:02;;;;;;;24.73;16.83;;;;;;;10.22;100.00;101254.13;4896974;28;20062;-64
2023/05/12 04:20:27;;;;;;;26.95;16.83;;;;;;;10.25;100.00;101238.06;4914693;28;20042;-64
2023/05/12 04:22:52;;;;;;;26.77;17.15;;;;;;;10.26;100.00;101241.59;4922079;28;20574;-64
2023/05/12 04:25:18;;;;;;;24.88;16.23;;;;;;;10.26;100.00;101246.91;4900827;28;20314;-65
2023/05/12 04:27:43;;;;;;;25.70;16.85;;;;;;;10.26;100.00;101237.13;4896415;28;20119;-65
2023/05/12 04:30:08;;;;;;;24.40;15.88;;;;;;;10.24;100.00;101233.63;4899497;28;20090;-65
2023/05/12 04:32:35;;;;;;;26.52;16.48;;;;;;;10.25;100.00;101240.75;4904622;28;20036;-66
2023/05/12 04:35:00;;;;;;;26.85;16.58;;;;;;;10.28;100.00;101245.91;4901393;28;20114;-65
2023/05/12 04:37:26;;;;;;;25.52;16.10;;;;;;;10.28;100.00;101239.72;4905559;28;20429;-65
2023/05/12 04:39:51;;;;;;;28.65;16.45;;;;;;;10.27;100.00;101240.66;4905277;28;20127;-66
2023/05/12 04:42:17;;;;;;;26.92;16.58;;;;;;;10.21;100.00;101223.16;4923302;28;20100;-65
2023/05/12 04:44:44;;;;;;;28.70;17.15;;;;;;;10.29;100.00;101238.81;4911191;28;20095;-65
2023/05/12 04:47:10;;;;;;;33.40;19.13;;;;;;;10.33;100.00;101238.63;4910134;28;20040;-65
2023/05/12 04:49:35;;;;;;;34.60;19.42;;;;;;;10.33;100.00;101243.06;4901632;29;20135;-66
2023/05/12 04:52:01;;;;;;;36.45;20.17;;;;;;;10.35;100.00;101242.06;4902644;28;20091;-65
2023/05/12 04:54:26;;;;;;;38.78;20.88;;;;;;;10.27;100.00;101230.03;4890386;28;20044;-66
2023/05/12 04:56:51;;;;;;;37.60;21.63;;;;;;;10.38;100.00;101252.56;4971081;28;20122;-65
2023/05/12 04:59:17;;;;;;;42.50;22.85;;;;;;;10.37;100.00;101250.84;4898584;29;20066;-65
2023/05/12 05:01:42;;;;;;;49.53;25.70;;;;;;;10.43;100.00;101255.03;4887370;29;20537;-66
2023/05/12 05:04:08;;;;;;;50.17;26.58;;;;;;;10.36;100.00;101241.13;4930302;28;20453;-65
2023/05/12 05:06:33;;;;;;;60.15;28.63;;;;;;;10.44;100.00;101251.44;4974340;28;20028;-65
2023/05/12 05:08:59;;;;;;;48.33;26.67;;;;;;;10.48;100.00;101256.56;4898380;28;20115;-66
2023/05/12 05:11:25;;;;;;;54.00;29.17;;;;;;;10.50;100.00;101264.50;4895886;28;20040;-67
2023/05/12 05:13:50;;;;;;;59.80;30.20;;;;;;;10.50;100.00;101261.81;4956265;28;20021;-66
2023/05/12 05:16:15;;;;;;;65.35;32.03;;;;;;;10.47;100.00;101245.97;4927288;28;20386;-67
2023/05/12 05:18:45;;;;;;;60.90;31.75;;;;;;;10.58;100.00;101262.34;4936752;28;20039;-67
2023/05/12 05:21:11;;;;;;;64.28;32.80;;;;;;;10.60;100.00;101270.25;4940590;28;20094;-66
2023/05/12 05:23:36;;;;;;;66.40;34.10;;;;;;;10.60;100.00;101268.47;4903844;28;20106;-66
2023/05/12 05:26:01;;;;;;;72.55;35.42;;;;;;;10.66;100.00;101278.00;4900790;29;20028;-66
2023/05/12 05:28:27;;;;;;;67.72;35.30;;;;;;;10.66;100.00;101268.22;4897367;28;20032;-65
2023/05/12 05:30:52;;;;;;;68.43;36.47;;;;;;;10.70;100.00;101276.88;4897969;28;20139;-66
2023/05/12 05:33:17;;;;;;;71.53;37.92;;;;;;;10.73;100.00;101277.63;4921974;28;20036;-66
2023/05/12 05:35:43;;;;;;;68.47;38.17;;;;;;;10.78;100.00;101280.06;4909077;28;20523;-66
2023/05/12 05:38:08;;;;;;;71.97;39.10;;;;;;;10.84;100.00;101281.63;4899633;28;20083;-67
2023/05/12 05:40:34;;;;;;;66.72;38.50;;;;;;;10.86;100.00;101280.59;4895167;28;20084;-67
2023/05/12 05:42:59;;;;;;;76.75;40.90;;;;;;;10.90;100.00;101289.31;4938788;28;20481;-67
2023/05/12 05:45:25;;;;;;;70.78;39.42;;;;;;;10.96;100.00;101291.72;4950669;28;20496;-67
2023/05/12 05:47:51;;;;;;;75.70;39.65;;;;;;;10.95;100.00;101296.19;4973875;28;20094;-67
2023/05/12 05:50:17;;;;;;;71.25;39.15;;;;;;;10.99;100.00;101302.22;4967384;28;20202;-69
2023/05/12 05:52:43;;;;;;;72.32;39.75;;;;;;;10.98;100.00;101298.69;4896525;28;20102;-67
2023/05/12 05:55:08;;;;;;;73.05;41.28;;;;;;;11.03;100.00;101310.94;4885703;29;20439;-67
2023/05/12 05:57:33;;;;;;;72.38;41.20;;;;;;;11.10;100.00;101309.72;4943699;28;20281;-66
2023/05/12 05:59:59;;;;;;;79.95;43.78;;;;;;;11.14;100.00;101311.31;4927682;28;20032;-66
2023/05/12 06:02:24;;;;;;;72.50;42.30;;;;;;;11.20;100.00;101305.69;4897654;28;20186;-66
2023/05/12 06:04:51;;;;;;;76.60;43.47;;;;;;;11.29;100.00;101304.44;4979038;28;20112;-66
2023/05/12 06:07:16;;;;;;;77.20;45.42;;;;;;;11.49;100.00;101317.66;4891686;28;20484;-67
2023/05/12 06:09:42;;;;;;;80.38;46.70;;;;;;;11.58;100.00;101319.03;4945695;28;20018;-66
2023/05/12 06:12:08;;;;;;;73.43;45.38;;;;;;;11.63;100.00;101325.91;4899019;28;20037;-66
2023/05/12 06:14:33;;;;;;;71.00;43.33;;;;;;;11.71;100.00;101330.88;4897795;28;20029;-65
2023/05/12 06:16:58;;;;;;;66.00;43.08;;;;;;;11.74;100.00;101338.69;4930015;28;20030;-67
2023/05/12 06:19:24;;;;;;;62.10;41.83;;;;;;;11.81;100.00;101337.47;4937078;28;20029;-65
2023/05/12 06:21:51;;;;;;;60.35;40.90;;;;;;;11.80;100.00;101333.09;4931556;28;20109;-66
2023/05/12 06:24:16;;;;;;;63.85;40.72;;;;;;;11.85;100.00;101344.44;4920160;28;20032;-64
2023/05/12 06:26:42;;;;;;;58.03;39.97;;;;;;;11.87;100.00;101347.91;4900618;28;20496;-66
2023/05/12 06:29:07;;;;;;;59.50;40.20;;;;;;;11.91;100.00;101348.59;4895390;28;20090;-65
2023/05/12 06:31:33;;;;;;;55.90;40.05;;;;;;;11.86;100.00;101348.81;4968560;28;20026;-65
2023/05/12 06:33:59;;;;;;;60.17;40.88;;;;;;;11.91;100.00;101353.94;4943828;28;20499;-66
2023/05/12 06:36:24;;;;;;;56.05;39.83;;;;;;;11.96;100.00;101347.44;4907525;28;20485;-67
2023/05/12 06:38:49;;;;;;;53.78;39.45;;;;;;;12.03;100.00;101358.66;4906628;28;20360;-66
2023/05/12 06:41:15;;;;;;;51.03;38.58;;;;;;;12.05;100.00;101359.47;4924165;28;20028;-67
2023/05/12 06:43:41;;;;;;;52.58;38.78;;;;;;;12.10;100.00;101357.44;4898495;28;20610;-66
2023/05/12 06:46:07;;;;;;;46.80;36.80;;;;;;;12.19;100.00;101358.78;4971250;28;20051;-66
2023/05/12 06:48:32;;;;;;;43.90;36.40;;;;;;;12.24;100.00;101358.56;4890243;29;20119;-66
2023/05/12 06:50:58;;;;;;;37.55;31.98;;;;;;;12.25;100.00;101360.28;4901961;28;20044;-66
2023/05/12 06:53:23;;;;;;;38.55;31.95;;;;;;;12.25;100.00;101366.50;4893201;28;20031;-66
2023/05/12 06:55:49;;;;;;;40.08;32.30;;;;;;;12.30;100.00;101369.81;4899742;28;20032;-66
2023/05/12 06:58:15;;;;;;;36.75;29.75;;;;;;;12.36;100.00;101374.81;4918398;28;20476;-67
2023/05/12 07:00:40;;;;;;;35.55;29.27;;;;;;;12.38;100.00;101377.44;4973228;28;20035;-66
2023/05/12 07:03:08;;;;;;;31.42;28.05;;;;;;;12.55;100.00;101380.13;4979639;28;20042;-66
2023/05/12 07:05:34;;;;;;;29.30;26.17;;;;;;;12.61;100.00;101390.47;4896751;28;20028;-67
2023/05/12 07:08:00;;;;;;;27.63;24.73;;;;;;;12.58;100.00;101379.97;4919314;28;20052;-66
2023/05/12 07:10:25;;;;;;;26.48;23.70;;;;;;;12.61;100.00;101381.59;4926256;28;20038;-67
2023/05/12 07:12:51;;;;;;;23.10;20.77;;;;;;;12.62;100.00;101394.91;4911714;28;20047;-66
2023/05/12 07:15:16;;;;;;;23.63;21.15;;;;;;;12.64;100.00;101393.00;4894127;28;20155;-66
2023/05/12 07:17:41;;;;;;;21.48;19.40;;;;;;;12.67;100.00;101398.19;4901689;28;20036;-66
2023/05/12 07:20:08;;;;;;;18.15;16.35;;;;;;;12.69;100.00;101398.09;4950280;28;20034;-66
2023/05/12 07:22:34;;;;;;;19.65;17.63;;;;;;;12.73;100.00;101391.66;4884071;28;20088;-66
2023/05/12 07:24:59;;;;;;;15.20;13.77;;;;;;;12.83;100.00;101395.63;4894377;29;20059;-65
2023/05/12 07:27:25;;;;;;;16.65;12.73;;;;;;;12.85;100.00;101399.06;4906221;29;20039;-65
2023/05/12 07:29:50;;;;;;;13.48;11.43;;;;;;;13.00;100.00;101404.53;4918170;28;20057;-66
2023/05/12 07:32:16;;;;;;;11.63;9.80;;;;;;;13.08;100.00;101405.88;4982029;28;20425;-66
2023/05/12 07:34:41;;;;;;;12.60;10.63;;;;;;;13.34;100.00;101406.34;4915276;28;20390;-66
2023/05/12 07:37:06;;;;;;;12.25;10.95;;;;;;;13.78;100.00;101400.38;4897337;29;20032;-66
2023/05/12 07:39:32;;;;;;;10.07;9.02;;;;;;;14.30;100.00;101397.47;4887576;28;20071;-67
2023/05/12 07:41:58;;;;;;;8.23;7.47;;;;;;;14.67;100.00;101417.59;4903881;28;20112;-65
2023/05/12 07:44:24;;;;;;;8.63;7.90;;;;;;;15.05;100.00;101422.50;4887573;28;20036;-66
2023/05/12 07:46:49;;;;;;;8.05;7.28;;;;;;;14.98;100.00;101422.03;4901860;28;20028;-66
2023/05/12 07:49:15;;;;;;;7.82;7.03;;;;;;;15.01;100.00;101412.94;4972420;28;20040;-66
2023/05/12 07:51:40;;;;;;;7.10;6.40;;;;;;;14.94;100.00;101409.75;4900888;28;20032;-66
2023/05/12 07:54:06;;;;;;;7.13;6.50;;;;;;;15.02;100.00;101420.03;4911606;28;20032;-65
2023/05/12 07:56:32;;;;;;;7.13;6.43;;;;;;;15.23;100.00;101421.41;4899862;28;20399;-66
2023/05/12 07:58:58;;;;;;;6.35;5.75;;;;;;;15.35;100.00;101423.34;4896655;28;20032;-66
2023/05/12 08:01:23;;;;;;;5.75;5.25;;;;;;;15.29;100.00;101422.84;4925932;28;20052;-66
2023/05/12 08:03:52;;;;;;;6.68;6.07;;;;;;;15.26;100.00;101423.00;4895751;28;20494;-64
2023/05/12 08:06:17;;;;;;;7.15;6.32;;;;;;;15.01;100.00;101416.50;4903632;28;20071;-64
2023/05/12 08:08:43;;;;;;;8.40;7.03;;;;;;;15.21;100.00;101428.66;4894640;28;20036;-64
2023/05/12 08:11:08;;;;;;;7.75;6.95;;;;;;;15.59;100.00;101422.75;4923421;28;20033;-63
2023/05/12 08:13:36;;;;;;;13.95;7.47;;;;;;;15.38;100.00;101433.88;4892347;29;20552;-65
2023/05/12 08:16:01;;;;;;;9.32;7.10;;;;;;;15.48;100.00;101430.63;4903810;28;20140;-64
2023/05/12 08:18:27;;;;;;;8.43;6.60;;;;;;;15.58;97.98;101431.75;4924351;28;20525;-65
2023/05/12 08:20:53;;;;;;;14.43;7.20;;;;;;;15.54;99.15;101441.81;4886009;28;20354;-64
2023/05/12 08:23:19;;;;;;;6.50;5.90;;;;;;;15.52;100.00;101435.69;4886801;28;20032;-65
2023/05/12 08:25:44;;;;;;;6.78;6.18;;;;;;;15.44;100.00;101446.91;4905536;28;20034;-66
2023/05/12 08:28:11;;;;;;;8.00;7.20;;;;;;;15.38;100.00;101441.94;4913054;28;20064;-66
2023/05/12 08:30:37;;;;;;;5.97;5.40;;;;;;;15.16;100.00;101449.53;4967225;28;20024;-67
2023/05/12 08:33:03;;;;;;;7.88;5.18;;;;;;;15.30;99.42;101449.59;4900831;28;20034;-66
2023/05/12 08:35:28;;;;;;;5.82;5.25;;;;;;;15.98;99.63;101438.19;4962595;28;20388;-66
2023/05/12 08:37:55;;;;;;;4.55;4.18;;;;;;;17.14;89.29;101443.06;4894798;28;20043;-66
2023/05/12 08:40:21;;;;;;;5.35;4.55;;;;;;;18.70;85.94;101431.81;4890529;28;20023;-66
2023/05/12 08:43:17;;;;;;;4.88;3.65;;;;;;;19.83;77.59;101443.72;4992663;28;20063;-68
2023/05/12 08:45:43;;;;;;;3.80;3.50;;;;;;;19.02;73.80;101458.16;4913441;28;20044;-68
2023/05/12 08:48:09;;;;;;;4.13;3.72;;;;;;;18.48;78.20;101461.34;4917000;28;20029;-66
2023/05/12 08:50:36;;;;;;;3.78;3.47;;;;;;;18.33;79.53;101460.63;4895952;28;20029;-65
2023/05/12 08:53:12;;;;;;;3.90;3.47;;;;;;;18.67;78.66;101462.53;4902828;28;20036;-66
2023/05/12 08:55:40;;;;;;;3.92;3.50;;;;;;;18.95;72.83;101468.56;4893552;29;20505;-66
2023/05/12 08:58:07;;;;;;;4.90;3.25;;;;;;;18.56;74.48;101470.56;4900829;28;20111;-66
2023/05/12 09:00:33;;;;;;;5.40;4.05;;;;;;;19.18;73.87;101474.88;4906251;28;20059;-66
2023/05/12 09:03:01;;;;;;;4.47;3.47;;;;;;;20.16;69.46;101461.75;4937868;28;20064;-65
2023/05/12 09:05:29;;;;;;;3.53;3.20;;;;;;;20.65;65.26;101471.25;4911609;28;20027;-66
2023/05/12 09:07:55;;;;;;;3.40;3.10;;;;;;;20.87;65.13;101467.59;4894663;28;20595;-66
2023/05/12 09:10:23;;;;;;;4.15;3.75;;;;;;;21.55;62.97;101463.56;4886427;28;20032;-65
2023/05/12 09:12:53;;;;;;;4.03;3.53;;;;;;;22.57;62.23;101468.91;4886418;29;20032;-67
2023/05/12 09:15:24;;;;;;;5.30;3.00;;;;;;;22.86;59.21;101471.66;4890995;28;20059;-66
2023/05/12 09:17:50;;;;;;;5.13;3.38;;;;;;;22.79;56.32;101489.53;4901693;28;20055;-67
2023/05/12 09:20:19;;;;;;;3.60;2.95;;;;;;;22.71;56.96;101471.22;4910540;28;20504;-66
2023/05/12 09:22:44;;;;;;;2.95;2.75;;;;;;;23.06;54.06;101473.41;4913284;28;20153;-68
2023/05/12 09:25:20;;;;;;;3.85;2.72;;;;;;;22.09;57.79;101483.19;4911018;28;20492;-66
2023/05/12 09:27:48;;;;;;;3.08;2.78;;;;;;;21.16;59.75;101475.09;4891061;28;21578;-67
2023/05/12 09:30:14;;;;;;;3.33;2.88;;;;;;;20.86;60.66;101468.59;4923384;28;20040;-68
2023/05/12 09:32:41;;;;;;;3.25;2.80;;;;;;;20.89;60.37;101482.72;4905300;28;20032;-67
2023/05/12 09:35:12;;;;;;;2.78;2.58;;;;;;;21.41;61.10;101482.00;4976330;28;20266;-67
2023/05/12 09:37:39;;;;;;;2.90;2.30;;;;;;;22.93;55.51;101482.84;4899040;28;20047;-67
2023/05/12 09:40:07;;;;;;;3.10;2.80;;;;;;;23.51;50.74;101488.22;4975774;28;20481;-67
2023/05/12 09:42:34;;;;;;;4.10;2.50;;;;;;;24.25;51.38;101473.78;4905087;28;20080;-68
2023/05/12 09:45:02;;;;;;;2.67;2.47;;;;;;;24.89;49.09;101477.38;4974054;28;20028;-68
2023/05/12 09:47:36;;;;;;;3.00;2.70;;;;;;;25.42;47.40;101479.22;4927171;28;20092;-68
2023/05/12 09:50:03;;;;;;;3.35;2.30;;;;;;;25.06;47.34;101487.41;4899124;28;20104;-68
2023/05/12 09:52:31;;;;;;;2.65;2.20;;;;;;;23.29;47.27;101490.25;4908612;28;20031;-68
2023/05/12 09:55:10;;;;;;;2.80;2.40;;;;;;;22.28;51.81;101491.44;4893776;28;20040;-67
2023/05/12 09:57:39;;;;;;;2.05;1.95;;;;;;;22.32;52.25;101492.00;4904997;28;20486;-67
2023/05/12 10:00:10;;;;;;;2.58;2.28;;;;;;;21.84;54.08;101484.50;4895088;28;20652;-67
2023/05/12 10:02:40;;;;;;;4.28;2.20;;;;;;;21.31;53.56;101504.41;4893063;28;20052;-67
2023/05/12 10:05:09;;;;;;;2.58;2.10;;;;;;;22.09;53.27;101486.75;4971856;28;20072;-68
2023/05/12 10:07:35;;;;;;;3.50;2.33;;;;;;;22.60;51.39;101487.63;4907962;28;20032;-67
2023/05/12 10:10:03;;;;;;;2.75;2.03;;;;;;;23.18;49.56;101500.41;4897728;28;20023;-68
2023/05/12 10:12:29;;;;;;;2.70;2.20;;;;;;;23.77;48.68;101494.75;4977725;28;20276;-66
2023/05/12 10:14:55;;;;;;;2.80;1.92;;;;;;;24.59;46.22;101498.53;4895286;28;20296;-66
2023/05/12 10:17:23;;;;;;;2.03;1.90;;;;;;;24.40;45.09;101495.91;4910842;28;20049;-67
2023/05/12 10:19:51;;;;;;;1.90;1.80;;;;;;;23.62;46.73;101501.63;4972803;28;20044;-67
2023/05/12 10:22:18;;;;;;;1.90;1.80;;;;;;;22.85;48.44;101497.94;4900777;28;20035;-68
2023/05/12 10:24:44;;;;;;;2.15;1.70;;;;;;;23.76;48.26;101497.63;4912291;28;20066;-67
2023/05/12 10:27:12;;;;;;;2.22;1.70;;;;;;;25.86;45.26;101487.34;4901192;28;20028;-68
2023/05/12 10:29:38;;;;;;;2.00;1.80;;;;;;;26.76;40.54;101499.50;4981733;28;20082;-71
2023/05/12 10:32:05;;;;;;;2.45;1.83;;;;;;;27.75;38.79;101496.59;4895108;28;20135;-67
2023/05/12 10:34:35;;;;;;;3.80;1.70;;;;;;;28.74;38.78;101492.41;4900488;29;20573;-68
2023/05/12 10:37:07;;;;;;;1.92;1.73;;;;;;;28.48;35.50;101494.66;4964633;28;20473;-67
2023/05/12 10:39:33;;;;;;;2.40;2.03;;;;;;;27.74;37.03;101494.91;4987705;28;20049;-67
2023/05/12 10:42:08;;;;;;;3.28;2.15;;;;;;;27.06;40.58;101501.56;4907058;28;20032;-67
2023/05/12 10:44:35;;;;;;;3.50;1.88;;;;;;;25.22;41.15;101506.66;4900939;28;20032;-67
2023/05/12 10:47:01;;;;;;;2.13;1.80;;;;;;;25.09;41.57;101500.75;4914494;28;20043;-67
2023/05/12 10:49:37;;;;;;;2.05;1.85;;;;;;;25.76;41.34;101512.84;4897166;28;20036;-66
2023/05/12 10:52:03;;;;;;;2.30;2.10;;;;;;;27.60;37.10;101501.06;4901718;28;20294;-66
2023/05/12 10:54:28;;;;;;;3.22;2.20;;;;;;;28.00;37.50;101502.00;4896965;28;20045;-67
2023/05/12 10:56:58;;;;;;;3.03;1.90;;;;;;;28.71;36.93;101520.16;4888761;29;20127;-67
2023/05/12 10:59:25;;;;;;;3.33;1.90;;;;;;;28.44;35.41;101505.09;4898764;28;20069;-68
2023/05/12 11:02:01;;;;;;;3.25;1.80;;;;;;;28.83;35.87;101500.59;4901963;29;20052;-67
2023/05/12 11:04:48;;;;;;;2.70;2.20;;;;;;;27.72;38.20;101524.28;4894212;28;20033;-66
2023/05/12 11:07:14;;;;;;;2.58;1.90;;;;;;;26.58;36.18;101521.44;4986979;28;20550;-66